Time;durP1;ratioP1;P1;durP2;ratioP2;P2;SDS_P1;SDS_P2;PMS_P1;PMS_P2;Temp;Humidity;BMP_temperature;BMP_pressure;BME280_temperature;BME280_humidity;BME280_pressure;Samples;Min_cycle;Max_cycle;Signal;HPM_P1;HPM_P2
2024/01/20 00:00:28;;;;;;;2.10;1.88;;;3.10;50.10;;;;;;5037002;28;20211;-89
2024/01/20 00:02:54;;;;;;;3.85;2.03;;;3.20;50.30;;;;;;5062967;28;20033;-88
2024/01/20 00:05:20;;;;;;;2.85;2.30;;;3.20;50.30;;;;;;5028479;28;20126;-87
2024/01/20 00:07:46;;;;;;;4.13;2.47;;;3.20;50.30;;;;;;5042022;28;20028;-89
2024/01/20 00:10:12;;;;;;;4.47;2.00;;;3.20;50.20;;;;;;5042645;28;20039;-87
2024/01/20 00:12:40;;;;;;;2.60;2.05;;;3.30;50.40;;;;;;5060155;28;20130;-88
2024/01/20 00:15:08;;;;;;;3.60;1.95;;;3.30;50.40;;;;;;5054089;28;20431;-86
2024/01/20 00:17:36;;;;;;;3.97;1.80;;;3.30;50.40;;;;;;5062029;28;20051;-88
2024/01/20 00:20:04;;;;;;;3.05;1.80;;;3.20;50.20;;;;;;5035779;28;20455;-89
2024/01/20 00:22:30;;;;;;;2.42;2.15;;;3.30;50.40;;;;;;5067897;28;20039;-91
2024/01/20 00:25:00;;;;;;;3.38;2.28;;;3.30;50.40;;;;;;5030220;28;20039;-89
2024/01/20 00:27:27;;;;;;;3.70;2.10;;;3.30;50.40;;;;;;5041641;28;20037;-90
2024/01/20 00:29:55;;;;;;;1.55;1.45;;;3.30;50.30;;;;;;5059165;28;20048;-83
2024/01/20 00:32:21;;;;;;;2.75;1.67;;;3.30;50.40;;;;;;5054456;28;20152;-83
2024/01/20 00:34:47;;;;;;;2.33;1.90;;;3.30;50.40;;;;;;5052378;28;20052;-83
2024/01/20 00:37:13;;;;;;;3.90;1.92;;;3.40;50.50;;;;;;5058494;28;20020;-84
2024/01/20 00:39:38;;;;;;;3.10;1.77;;;3.30;50.30;;;;;;5057409;28;20063;-84
2024/01/20 00:42:05;;;;;;;2.17;1.92;;;3.40;50.50;;;;;;5038492;28;20067;-84
2024/01/20 00:44:30;;;;;;;2.25;1.75;;;3.40;50.50;;;;;;5062690;28;20025;-83
2024/01/20 00:46:59;;;;;;;2.13;1.73;;;3.40;50.50;;;;;;5044029;28;20029;-85
2024/01/20 00:49:25;;;;;;;3.63;1.50;;;3.40;50.50;;;;;;5057009;28;20032;-85
2024/01/20 00:51:51;;;;;;;2.22;1.90;;;3.40;50.50;;;;;;5054742;28;20218;-85
2024/01/20 00:54:17;;;;;;;3.25;1.55;;;3.40;50.50;;;;;;5043785;28;20100;-82
2024/01/20 00:56:43;;;;;;;2.50;1.50;;;3.40;50.50;;;;;;5056300;28;20047;-85
2024/01/20 00:59:09;;;;;;;1.73;1.60;;;3.40;50.40;;;;;;5059047;28;20037;-88
2024/01/20 01:01:35;;;;;;;3.85;1.50;;;3.40;50.40;;;;;;5047129;28;20174;-86
2024/01/20 01:04:01;;;;;;;2.70;1.65;;;3.50;50.60;;;;;;5048844;28;20070;-87
2024/01/20 01:06:27;;;;;;;4.05;2.28;;;3.50;50.60;;;;;;5079224;28;20055;-86
2024/01/20 01:08:54;;;;;;;3.47;1.58;;;3.50;50.60;;;;;;5050160;28;20476;-87
2024/01/20 01:11:19;;;;;;;1.52;1.35;;;3.50;50.60;;;;;;5066738;28;20537;-87
2024/01/20 01:13:45;;;;;;;2.78;1.25;;;3.50;50.60;;;;;;5031947;28;20123;-85
2024/01/20 01:16:13;;;;;;;3.05;1.45;;;3.60;50.80;;;;;;5049537;28;20070;-87
2024/01/20 01:18:38;;;;;;;3.13;1.60;;;3.60;50.80;;;;;;5061464;28;20142;-88
2024/01/20 01:21:04;;;;;;;3.33;1.50;;;3.60;50.80;;;;;;5044626;28;20033;-87
2024/01/20 01:23:31;;;;;;;1.90;1.10;;;3.60;50.80;;;;;;5063309;28;20086;-87
2024/01/20 01:25:57;;;;;;;1.30;1.05;;;3.60;50.70;;;;;;5055864;28;20027;-88
2024/01/20 01:28:23;;;;;;;2.25;1.13;;;3.60;50.70;;;;;;5042715;28;20041;-88
2024/01/20 01:30:49;;;;;;;3.08;1.40;;;3.70;50.90;;;;;;5046482;28;20039;-87
2024/01/20 01:33:15;;;;;;;2.45;1.40;;;3.70;50.90;;;;;;5063181;28;20226;-86
2024/01/20 01:35:41;;;;;;;1.58;1.30;;;3.70;50.90;;;;;;5028232;28;20115;-85
2024/01/20 01:38:07;;;;;;;3.15;1.40;;;3.80;51.00;;;;;;5024498;28;20136;-82
2024/01/20 01:40:33;;;;;;;1.65;1.55;;;3.80;51.10;;;;;;5057769;28;20052;-82
2024/01/20 01:42:59;;;;;;;2.08;1.33;;;3.80;51.00;;;;;;5044106;28;20063;-86
2024/01/20 01:45:26;;;;;;;2.00;1.00;;;3.80;51.00;;;;;;5060503;28;20032;-80
2024/01/20 01:47:55;;;;;;;3.97;1.60;;;3.80;50.90;;;;;;5038067;28;20097;-82
2024/01/20 01:50:21;;;;;;;1.52;1.15;;;3.90;51.10;;;;;;5056178;28;20059;-83
2024/01/20 01:52:50;;;;;;;2.15;1.10;;;3.90;51.00;;;;;;5060851;28;20063;-82
2024/01/20 01:55:16;;;;;;;1.83;1.33;;;3.90;51.00;;;;;;5039225;28;20032;-80
2024/01/20 01:57:43;;;;;;;2.42;1.17;;;3.90;51.00;;;;;;5043640;28;20115;-80
2024/01/20 02:00:10;;;;;;;1.60;1.10;;;3.90;51.00;;;;;;5053833;28;20093;-77
2024/01/20 02:02:37;;;;;;;1.75;1.17;;;3.90;50.90;;;;;;5025386;28;20050;-80
2024/01/20 02:05:09;;;;;;;1.85;1.20;;;3.90;50.90;;;;;;5061687;28;20116;-80
2024/01/20 02:07:39;;;;;;;2.13;1.15;;;3.90;50.90;;;;;;5043707;28;20040;-80
2024/01/20 02:10:06;;;;;;;2.92;1.13;;;3.90;50.90;;;;;;5043346;28;20072;-79
2024/01/20 02:12:34;;;;;;;2.50;1.80;;;3.90;50.90;;;;;;5057845;28;20032;-80
2024/01/20 02:15:01;;;;;;;2.25;1.25;;;3.90;50.90;;;;;;5043974;28;20132;-79
2024/01/20 02:17:27;;;;;;;2.47;1.20;;;3.90;50.90;;;;;;5057481;28;20115;-79
2024/01/20 02:19:53;;;;;;;1.25;1.15;;;3.90;50.90;;;;;;5062203;28;20191;-80
2024/01/20 02:22:19;;;;;;;1.60;1.00;;;4.00;51.10;;;;;;5040147;28;20439;-80
2024/01/20 02:24:49;;;;;;;2.85;1.30;;;4.00;51.10;;;;;;5048819;28;20111;-81
2024/01/20 02:27:17;;;;;;;3.13;1.27;;;4.00;51.00;;;;;;5060594;28;20411;-80
2024/01/20 02:29:43;;;;;;;4.15;1.15;;;4.00;51.00;;;;;;5042075;28;20029;-77
2024/01/20 02:32:10;;;;;;;2.63;1.33;;;4.00;51.00;;;;;;5054667;28;20485;-78
2024/01/20 02:34:37;;;;;;;4.68;1.30;;;4.00;50.90;;;;;;5063440;28;20470;-78
2024/01/20 02:37:04;;;;;;;1.58;1.00;;;4.10;51.10;;;;;;5043011;28;20074;-78
2024/01/20 02:39:31;;;;;;;1.50;1.10;;;4.10;51.10;;;;;;5061474;28;20596;-78
2024/01/20 02:41:57;;;;;;;1.83;1.02;;;4.10;51.10;;;;;;5062928;28;20025;-77
2024/01/20 02:44:22;;;;;;;2.38;1.10;;;4.10;51.10;;;;;;5045576;28;20040;-79
2024/01/20 02:46:48;;;;;;;2.13;1.00;;;4.10;51.10;;;;;;5043901;28;20250;-78
2024/01/20 02:49:14;;;;;;;1.85;0.93;;;4.10;51.10;;;;;;5066723;28;20490;-79
2024/01/20 02:51:40;;;;;;;2.85;1.00;;;4.10;51.10;;;;;;5055777;28;20059;-79
2024/01/20 02:54:06;;;;;;;2.08;1.10;;;4.10;51.10;;;;;;5042824;28;20033;-79
2024/01/20 02:56:33;;;;;;;1.35;0.95;;;4.10;51.10;;;;;;5028287;28;20475;-79
2024/01/20 02:59:01;;;;;;;1.30;1.00;;;4.10;51.10;;;;;;5065706;28;20025;-79
2024/01/20 03:01:27;;;;;;;2.28;1.10;;;4.10;51.10;;;;;;5061055;28;20383;-77
2024/01/20 03:03:53;;;;;;;1.85;0.90;;;4.10;51.10;;;;;;5059574;28;20037;-79
2024/01/20 03:06:19;;;;;;;1.38;1.00;;;4.10;51.10;;;;;;5068222;28;20334;-80
2024/01/20 03:08:45;;;;;;;3.50;0.95;;;4.10;51.10;;;;;;5063396;28;20028;-80
2024/01/20 03:11:11;;;;;;;0.85;0.77;;;4.10;51.10;;;;;;5045961;28;20100;-80
2024/01/20 03:13:38;;;;;;;2.17;1.35;;;4.10;51.10;;;;;;5065578;28;20123;-80
2024/01/20 03:16:04;;;;;;;1.42;0.90;;;4.10;51.10;;;;;;5046731;28;20032;-79
2024/01/20 03:18:30;;;;;;;4.70;1.02;;;4.20;51.20;;;;;;5046646;28;20040;-80
2024/01/20 03:20:56;;;;;;;2.10;1.17;;;4.20;51.20;;;;;;5046479;28;20078;-80
2024/01/20 03:23:22;;;;;;;4.30;1.10;;;4.20;51.20;;;;;;5068690;28;20044;-80
2024/01/20 03:25:48;;;;;;;1.83;1.00;;;4.20;51.20;;;;;;5047467;28;20033;-80
2024/01/20 03:28:15;;;;;;;2.72;1.10;;;4.20;51.10;;;;;;5044304;28;20032;-79
2024/01/20 03:30:41;;;;;;;1.98;1.30;;;4.20;51.10;;;;;;5062035;28;20032;-80
2024/01/20 03:33:08;;;;;;;1.15;0.80;;;4.20;51.10;;;;;;5037906;28;20395;-80
2024/01/20 03:35:33;;;;;;;2.05;1.08;;;4.20;51.10;;;;;;5063473;28;20249;-80
2024/01/20 03:38:00;;;;;;;2.05;1.05;;;4.20;51.20;;;;;;5069106;28;20028;-90
2024/01/20 03:40:26;;;;;;;0.88;0.88;;;4.20;51.20;;;;;;5039808;28;20074;-89
2024/01/20 03:42:52;;;;;;;1.73;0.90;;;4.20;51.20;;;;;;5026209;28;20029;-87
2024/01/20 03:45:18;;;;;;;2.72;1.48;;;4.20;51.10;;;;;;5066869;28;20067;-88
2024/01/20 03:47:45;;;;;;;1.77;1.33;;;4.20;51.20;;;;;;5047339;28;20131;-87
2024/01/20 03:50:14;;;;;;;1.80;1.00;;;4.30;51.40;;;;;;5066146;28;20457;-86
2024/01/20 03:52:40;;;;;;;1.45;1.05;;;4.30;51.40;;;;;;5065848;28;20036;-89
2024/01/20 03:55:06;;;;;;;1.90;0.88;;;4.30;51.40;;;;;;5059379;28;20082;-89
2024/01/20 03:57:32;;;;;;;2.40;1.08;;;4.30;51.40;;;;;;5043774;28;20024;-89
2024/01/20 03:59:58;;;;;;;2.05;1.10;;;4.30;51.40;;;;;;5068455;28;20127;-81
2024/01/20 04:02:24;;;;;;;4.45;0.88;;;4.30;51.40;;;;;;5068200;28;20028;-87
2024/01/20 04:04:50;;;;;;;1.85;0.95;;;4.30;51.30;;;;;;5068404;28;20033;-88
2024/01/20 04:07:17;;;;;;;1.33;0.93;;;4.30;51.40;;;;;;5048200;28;20090;-89
2024/01/20 04:09:44;;;;;;;2.13;1.20;;;4.40;51.50;;;;;;5024321;28;20025;-82
2024/01/20 04:12:10;;;;;;;1.80;0.90;;;4.40;51.50;;;;;;5040007;28;20025;-84
2024/01/20 04:14:35;;;;;;;1.45;1.00;;;4.40;51.50;;;;;;5046138;28;20052;-85
2024/01/20 04:17:03;;;;;;;1.08;0.80;;;4.40;51.50;;;;;;5049101;28;20119;-85
2024/01/20 04:19:29;;;;;;;1.48;0.80;;;4.40;51.40;;;;;;5058670;28;20102;-86
2024/01/20 04:21:55;;;;;;;2.58;1.23;;;4.40;51.40;;;;;;5058418;28;20033;-86
2024/01/20 04:24:21;;;;;;;3.15;1.10;;;4.40;51.40;;;;;;5026901;28;20331;-86
2024/01/20 04:26:47;;;;;;;3.25;1.13;;;4.40;51.40;;;;;;5047896;28;20061;-85
2024/01/20 04:29:13;;;;;;;2.05;1.10;;;4.40;51.40;;;;;;5044749;28;20036;-87
2024/01/20 04:31:40;;;;;;;1.05;0.93;;;4.40;51.40;;;;;;5032253;28;20049;-85
2024/01/20 04:34:06;;;;;;;2.22;0.98;;;4.40;51.40;;;;;;5067446;28;20435;-84
2024/01/20 04:36:32;;;;;;;3.13;1.02;;;4.50;51.60;;;;;;5063931;28;20100;-85
2024/01/20 04:38:59;;;;;;;2.28;1.13;;;4.50;51.60;;;;;;5069893;28;20099;-82
2024/01/20 04:41:25;;;;;;;1.77;1.02;;;4.50;51.60;;;;;;5066597;28;20452;-83
2024/01/20 04:43:51;;;;;;;2.60;0.90;;;4.50;51.60;;;;;;5050901;28;20359;-83
2024/01/20 04:46:17;;;;;;;1.25;1.10;;;4.50;51.50;;;;;;5065993;28;20033;-85
2024/01/20 04:48:43;;;;;;;1.90;1.35;;;4.50;51.50;;;;;;5069011;28;20350;-83
2024/01/20 04:51:09;;;;;;;2.97;0.93;;;4.50;51.50;;;;;;5068152;28;20513;-84
2024/01/20 04:53:35;;;;;;;1.88;1.13;;;4.50;51.60;;;;;;5051522;28;20430;-84
2024/01/20 04:56:04;;;;;;;2.85;0.90;;;4.50;51.50;;;;;;5041347;28;20036;-84
2024/01/20 04:58:30;;;;;;;2.70;1.33;;;4.60;51.70;;;;;;5050349;28;20115;-84
2024/01/20 05:00:56;;;;;;;4.55;1.08;;;4.60;51.70;;;;;;5057850;28;20025;-83
2024/01/20 05:03:22;;;;;;;4.40;1.30;;;4.60;51.70;;;;;;5052431;28;20055;-85
2024/01/20 05:05:48;;;;;;;4.05;1.10;;;4.50;51.50;;;;;;5067544;28;20044;-82
2024/01/20 05:08:14;;;;;;;3.53;1.15;;;4.60;51.60;;;;;;5062276;28;20064;-85
2024/01/20 05:10:41;;;;;;;2.50;1.30;;;4.60;51.60;;;;;;5048677;28;20032;-86
2024/01/20 05:13:07;;;;;;;3.70;1.13;;;4.60;51.60;;;;;;5035066;28;20063;-84
2024/01/20 05:15:33;;;;;;;2.03;0.85;;;4.60;51.50;;;;;;5067948;28;20044;-85
2024/01/20 05:17:59;;;;;;;2.58;1.15;;;4.60;51.50;;;;;;5049316;28;20402;-86
2024/01/20 05:20:25;;;;;;;2.88;1.20;;;4.60;51.50;;;;;;5049429;28;20723;-84
2024/01/20 05:22:51;;;;;;;1.42;0.80;;;4.60;51.50;;;;;;5063216;28;20035;-85
2024/01/20 05:25:17;;;;;;;3.20;1.15;;;4.70;51.70;;;;;;5066028;28;20055;-88
2024/01/20 05:27:43;;;;;;;3.17;1.20;;;4.60;51.50;;;;;;5069258;28;20025;-82
2024/01/20 05:30:09;;;;;;;1.73;1.40;;;4.60;51.50;;;;;;5068369;28;20621;-83
2024/01/20 05:32:40;;;;;;;2.97;1.25;;;4.70;51.70;;;;;;5048679;28;20091;-84
2024/01/20 05:35:06;;;;;;;3.15;1.15;;;4.70;51.70;;;;;;5060806;28;20165;-83
2024/01/20 05:37:32;;;;;;;2.45;1.30;;;4.70;51.70;;;;;;5050297;28;20051;-84
2024/01/20 05:39:58;;;;;;;1.85;0.98;;;4.70;51.60;;;;;;5064850;28;20048;-83
2024/01/20 05:42:25;;;;;;;2.30;0.93;;;4.70;51.60;;;;;;5048872;28;20024;-82
2024/01/20 05:44:51;;;;;;;0.75;0.60;;;4.70;51.60;;;;;;5063889;28;20109;-83
2024/01/20 05:47:17;;;;;;;2.85;1.25;;;4.70;51.60;;;;;;5065104;28;20453;-83
2024/01/20 05:49:43;;;;;;;1.83;0.90;;;4.70;51.50;;;;;;5063863;28;20028;-83
2024/01/20 05:52:10;;;;;;;2.47;1.00;;;4.70;51.50;;;;;;5044333;28;20218;-83
2024/01/20 05:54:36;;;;;;;2.58;1.20;;;4.70;51.50;;;;;;5044723;28;20607;-84
2024/01/20 05:57:02;;;;;;;1.65;1.10;;;4.70;51.50;;;;;;5019832;28;20440;-83
2024/01/20 05:59:28;;;;;;;1.45;1.10;;;4.80;51.70;;;;;;5041762;28;20406;-82
2024/01/20 06:01:55;;;;;;;2.42;1.02;;;4.80;51.60;;;;;;5061691;28;20028;-81
2024/01/20 06:04:22;;;;;;;3.20;1.25;;;4.80;51.60;;;;;;5059162;28;20052;-81
2024/01/20 06:06:49;;;;;;;4.75;1.23;;;4.80;51.60;;;;;;5032996;28;20064;-81
2024/01/20 06:09:16;;;;;;;2.92;1.02;;;4.80;51.60;;;;;;5040872;28;20559;-81
2024/01/20 06:11:42;;;;;;;2.75;1.30;;;4.80;52.10;;;;;;5058672;28;20052;-84
2024/01/20 06:14:11;;;;;;;2.63;1.10;;;4.80;51.50;;;;;;5048191;28;20438;-82
2024/01/20 06:16:41;;;;;;;1.20;0.90;;;4.80;51.40;;;;;;5047503;28;20135;-81
2024/01/20 06:19:07;;;;;;;1.90;0.85;;;4.90;51.60;;;;;;5062418;28;20138;-84
2024/01/20 06:21:33;;;;;;;3.08;1.30;;;4.90;51.60;;;;;;5043645;28;20107;-85
2024/01/20 06:23:59;;;;;;;1.58;0.95;;;4.90;51.50;;;;;;5060250;28;20447;-85
2024/01/20 06:26:25;;;;;;;4.43;1.55;;;4.90;51.50;;;;;;5044698;28;20024;-83
2024/01/20 06:28:52;;;;;;;2.55;1.25;;;4.90;51.50;;;;;;5041308;28;20044;-84
2024/01/20 06:31:27;;;;;;;2.03;1.10;;;4.90;51.40;;;;;;5059441;28;20087;-85
2024/01/20 06:33:53;;;;;;;2.92;1.25;;;4.90;51.40;;;;;;5059446;28;20557;-84
2024/01/20 06:36:26;;;;;;;1.88;1.17;;;4.90;51.40;;;;;;5062086;28;20132;-85
2024/01/20 06:38:52;;;;;;;5.97;1.10;;;5.00;51.60;;;;;;5054692;28;20112;-81
2024/01/20 06:41:19;;;;;;;4.25;1.30;;;5.00;51.60;;;;;;5040431;28;20035;-83
2024/01/20 06:43:45;;;;;;;2.42;1.35;;;5.00;51.50;;;;;;5059617;28;20143;-82
2024/01/20 06:46:11;;;;;;;2.67;1.40;;;5.00;51.50;;;;;;5053504;28;20519;-83
2024/01/20 06:48:37;;;;;;;4.25;1.30;;;5.00;51.50;;;;;;5026564;28;20060;-82
2024/01/20 06:51:03;;;;;;;1.63;1.00;;;5.00;51.50;;;;;;5060226;28;20028;-82
2024/01/20 06:53:31;;;;;;;1.38;0.90;;;5.00;51.50;;;;;;5041034;28;20102;-83
2024/01/20 06:55:57;;;;;;;2.92;1.08;;;5.00;51.50;;;;;;5053588;28;20514;-84
2024/01/20 06:58:24;;;;;;;3.55;1.42;;;5.00;51.50;;;;;;5056856;28;20036;-83
2024/01/20 07:00:50;;;;;;;3.75;1.33;;;5.00;51.50;;;;;;5058965;28;20024;-84
2024/01/20 07:03:17;;;;;;;3.05;1.20;;;5.10;51.60;;;;;;5045263;28;20047;-82
2024/01/20 07:05:44;;;;;;;2.00;1.10;;;5.00;51.40;;;;;;5060791;28;20449;-82
2024/01/20 07:08:10;;;;;;;2.15;1.13;;;5.10;51.60;;;;;;5059517;28;20040;-84
2024/01/20 07:10:36;;;;;;;2.55;1.25;;;5.10;51.60;;;;;;5057841;28;20486;-86
2024/01/20 07:13:02;;;;;;;3.20;1.10;;;5.10;51.60;;;;;;5038238;28;20083;-82
2024/01/20 07:15:28;;;;;;;1.63;0.93;;;5.10;51.60;;;;;;5058956;28;20100;-82
2024/01/20 07:17:57;;;;;;;3.45;1.58;;;5.10;51.60;;;;;;5061151;28;20121;-84
2024/01/20 07:20:24;;;;;;;1.95;0.82;;;5.10;51.50;;;;;;5042390;28;20158;-83
2024/01/20 07:22:50;;;;;;;2.33;1.08;;;5.10;51.50;;;;;;5043519;28;20039;-82
2024/01/20 07:25:18;;;;;;;3.85;1.15;;;5.10;51.50;;;;;;5057233;28;20033;-84
2024/01/20 07:27:44;;;;;;;4.45;1.45;;;5.10;51.50;;;;;;5037011;28;20037;-83
2024/01/20 07:30:12;;;;;;;2.78;1.13;;;5.10;51.50;;;;;;5066544;28;20037;-82
2024/01/20 07:32:42;;;;;;;2.25;1.10;;;5.10;51.50;;;;;;5063895;28;20549;-83
2024/01/20 07:35:08;;;;;;;2.75;1.67;;;5.10;51.60;;;;;;5059207;28;20062;-84
2024/01/20 07:37:37;;;;;;;3.65;1.10;;;5.20;52.00;;;;;;5065236;28;20028;-86
2024/01/20 07:40:04;;;;;;;3.10;1.10;;;5.20;52.10;;;;;;5047408;28;20036;-83
2024/01/20 07:42:35;;;;;;;3.25;0.90;;;5.30;52.90;;;;;;5068217;28;20024;-80
2024/01/20 07:45:02;;;;;;;3.20;1.23;;;5.60;54.10;;;;;;5040765;28;20032;-83
2024/01/20 07:47:28;;;;;;;205.65;34.53;;;5.90;54.80;;;;;;5069462;28;20036;-83
2024/01/20 07:49:54;;;;;;;33.92;5.80;;;6.40;55.30;;;;;;5037543;28;20049;-85
2024/01/20 07:52:20;;;;;;;26.48;5.60;;;6.70;55.50;;;;;;5029706;28;20119;-88
2024/01/20 07:54:46;;;;;;;58.42;8.50;;;7.20;55.60;;;;;;5079488;28;20036;-84
2024/01/20 07:57:12;;;;;;;35.50;6.53;;;7.60;55.70;;;;;;5059563;28;20036;-92
2024/01/20 07:59:39;;;;;;;41.28;6.07;;;8.10;56.00;;;;;;5074094;28;20707;-91
2024/01/20 08:02:06;;;;;;;25.70;4.07;;;8.40;55.80;;;;;;5040346;28;20308;-91
2024/01/20 08:04:32;;;;;;;27.80;5.15;;;8.80;56.00;;;;;;5067491;28;20403;-88
2024/01/20 08:06:58;;;;;;;23.23;3.90;;;9.10;55.80;;;;;;5043207;28;20101;-89
2024/01/20 08:09:30;;;;;;;18.58;4.38;;;9.40;55.80;;;;;;5053331;28;20103;-86
2024/01/20 08:11:57;;;;;;;15.20;3.40;;;9.70;55.90;;;;;;5004999;28;20294;-86
2024/01/20 08:14:22;;;;;;;18.85;4.25;;;10.00;55.90;;;;;;5058598;28;20044;-87
2024/01/20 08:16:52;;;;;;;14.20;2.97;;;10.20;55.80;;;;;;5039637;28;20092;-88
2024/01/20 08:19:18;;;;;;;16.83;3.10;;;10.40;55.70;;;;;;5024553;28;20579;-87
2024/01/20 08:21:44;;;;;;;10.82;2.85;;;10.60;55.70;;;;;;5034049;28;20029;-85
2024/01/20 08:24:10;;;;;;;14.00;3.72;;;10.80;55.70;;;;;;5057108;28;20094;-86
2024/01/20 08:26:38;;;;;;;11.95;2.97;;;11.00;55.70;;;;;;5052703;28;20388;-87
2024/01/20 08:29:04;;;;;;;8.45;2.63;;;11.20;55.70;;;;;;5019453;28;20033;-87
2024/01/20 08:31:30;;;;;;;9.60;3.17;;;11.30;55.60;;;;;;5037555;28;20097;-87
2024/01/20 08:33:57;;;;;;;7.80;2.22;;;11.40;55.40;;;;;;5038748;28;21002;-90
2024/01/20 08:36:24;;;;;;;8.85;1.85;;;11.50;55.30;;;;;;5038372;28;20025;-86
2024/01/20 08:38:50;;;;;;;8.38;2.22;;;11.70;55.50;;;;;;5040108;28;20035;-86
2024/01/20 08:41:16;;;;;;;8.95;2.38;;;11.80;55.40;;;;;;5054682;28;20040;-90
2024/01/20 08:43:43;;;;;;;9.43;2.58;;;11.90;55.30;;;;;;5059179;28;20349;-88
2024/01/20 08:46:11;;;;;;;8.02;1.85;;;12.00;55.20;;;;;;5039819;28;20033;-90
2024/01/20 08:48:37;;;;;;;13.43;2.55;;;12.10;55.10;;;;;;5042643;28;20090;-93
2024/01/20 08:51:03;;;;;;;9.65;1.92;;;12.20;55.10;;;;;;5024604;28;20060;-88
2024/01/20 08:53:30;;;;;;;9.07;1.95;;;12.30;55.00;;;;;;5058374;28;20051;-88
2024/01/20 08:55:58;;;;;;;8.43;1.98;;;12.40;54.90;;;;;;5038991;28;20120;-88
2024/01/20 08:58:24;;;;;;;7.35;2.42;;;12.50;54.80;;;;;;5041318;28;20518;-93
2024/01/20 09:00:50;;;;;;;6.13;1.70;;;12.60;54.70;;;;;;5021405;28;20083;-90
2024/01/20 09:03:18;;;;;;;5.78;2.08;;;12.70;54.70;;;;;;5037112;28;20029;-90
2024/01/20 09:05:45;;;;;;;5.15;1.60;;;12.80;54.60;;;;;;5056956;28;20108;-87
2024/01/20 09:08:12;;;;;;;5.68;1.80;;;12.90;54.60;;;;;;5040899;28;20127;-88
2024/01/20 09:10:39;;;;;;;4.95;1.60;;;13.00;54.60;;;;;;5038742;28;20115;-89
2024/01/20 09:13:07;;;;;;;5.38;1.60;;;13.10;54.50;;;;;;5026600;28;20113;-89
2024/01/20 09:15:33;;;;;;;5.82;1.60;;;13.20;54.50;;;;;;5039090;28;20495;-88
2024/01/20 09:17:59;;;;;;;3.60;1.20;;;13.30;54.40;;;;;;5061372;28;20028;-91
2024/01/20 09:20:25;;;;;;;7.25;2.80;;;13.40;54.30;;;;;;5058724;28;20451;-92
2024/01/20 09:22:52;;;;;;;5.13;1.25;;;13.50;54.30;;;;;;5043314;28;20027;-90
2024/01/20 09:25:18;;;;;;;4.82;1.95;;;13.50;54.00;;;;;;5038914;28;20105;-86
2024/01/20 09:27:47;;;;;;;5.00;1.50;;;13.60;53.90;;;;;;5056154;28;20090;-85
2024/01/20 09:30:14;;;;;;;3.63;1.80;;;13.70;53.90;;;;;;5040020;28;20282;-90
2024/01/20 09:32:40;;;;;;;2.67;1.20;;;13.80;53.80;;;;;;5044005;28;20045;-89
2024/01/20 09:35:08;;;;;;;4.90;1.27;;;13.90;53.80;;;;;;5060383;28;20105;-87
2024/01/20 09:37:36;;;;;;;4.45;1.20;;;14.00;53.80;;;;;;5027661;28;20036;-87
2024/01/20 09:40:05;;;;;;;2.75;1.23;;;14.00;53.60;;;;;;5043487;28;20158;-88
2024/01/20 09:42:32;;;;;;;3.50;1.92;;;14.10;53.60;;;;;;5043996;28;20029;-88
2024/01/20 09:44:59;;;;;;;4.18;1.27;;;14.20;53.60;;;;;;5064107;28;20036;-91
2024/01/20 09:47:25;;;;;;;3.55;1.20;;;14.30;54.10;;;;;;5057170;28;20142;-82
2024/01/20 09:49:52;;;;;;;2.80;1.58;;;14.30;53.40;;;;;;5038382;28;20253;-83
2024/01/20 09:52:31;;;;;;;3.40;1.33;;;14.30;53.20;;;;;;5054518;28;20036;-80
2024/01/20 09:55:23;;;;;;;6.28;1.50;;;14.30;52.90;;;;;;5038003;28;20040;-81
2024/01/20 09:57:50;;;;;;;11.68;1.90;;;14.30;52.70;;;;;;5034582;28;20550;-81
2024/01/20 10:00:18;;;;;;;2.60;1.02;;;14.20;52.70;;;;;;5058853;28;20132;-81
2024/01/20 10:02:47;;;;;;;4.85;2.28;;;14.10;52.60;;;;;;5036717;28;20040;-84
2024/01/20 10:05:14;;;;;;;4.38;1.30;;;14.10;52.80;;;;;;5038970;28;20025;-79
2024/01/20 10:07:42;;;;;;;3.08;2.17;;;13.90;52.60;;;;;;5039765;28;20090;-80
2024/01/20 10:10:19;;;;;;;5.90;1.42;;;13.90;52.90;;;;;;5059892;28;20036;-79
2024/01/20 10:12:54;;;;;;;4.30;1.52;;;13.80;52.80;;;;;;5056439;28;20043;-81
2024/01/20 10:15:28;;;;;;;3.78;1.70;;;13.70;52.90;;;;;;5054918;28;20375;-82
2024/01/20 10:17:55;;;;;;;4.35;1.83;;;13.60;52.80;;;;;;5020625;28;20111;-81
2024/01/20 10:20:35;;;;;;;2.05;1.20;;;13.60;53.00;;;;;;5055188;28;20037;-81
2024/01/20 10:23:03;;;;;;;5.35;1.73;;;13.60;53.10;;;;;;5041970;28;20181;-84
2024/01/20 10:25:31;;;;;;;2.72;1.15;;;13.50;53.20;;;;;;5024033;28;20086;-82
2024/01/20 10:27:56;;;;;;;3.35;1.13;;;13.50;53.30;;;;;;5057605;28;20099;-82
2024/01/20 10:30:24;;;;;;;5.78;1.55;;;13.60;53.60;;;;;;5057048;28;20115;-83
2024/01/20 10:32:51;;;;;;;3.58;1.50;;;13.70;53.70;;;;;;5058960;28;20070;-83
2024/01/20 10:35:17;;;;;;;3.75;1.60;;;13.70;53.50;;;;;;5041276;28;20065;-82
2024/01/20 10:37:44;;;;;;;3.42;1.38;;;13.70;53.40;;;;;;5045750;28;20060;-80
2024/01/20 10:40:13;;;;;;;4.32;1.13;;;13.80;53.50;;;;;;5038105;28;20024;-92
2024/01/20 10:42:45;;;;;;;2.88;1.40;;;13.90;53.50;;;;;;5055374;28;20033;-87
2024/01/20 10:45:43;;;;;;;9.13;2.35;;;14.00;53.60;;;;;;5056310;28;20021;-88
2024/01/20 10:48:18;;;;;;;2.78;1.67;;;14.10;53.50;;;;;;5060959;28;20067;-87
2024/01/20 10:50:48;;;;;;;2.55;1.15;;;14.20;53.60;;;;;;5065114;28;20055;-90
2024/01/20 10:53:14;;;;;;;4.72;1.13;;;14.20;53.40;;;;;;5063994;28;20085;-87
2024/01/20 10:55:42;;;;;;;3.20;1.10;;;14.30;53.40;;;;;;5060082;28;20051;-87
2024/01/20 10:58:10;;;;;;;2.67;1.50;;;14.40;53.40;;;;;;5059361;28;20028;-86
2024/01/20 11:00:39;;;;;;;4.50;1.25;;;14.50;53.40;;;;;;5059493;28;20144;-85
2024/01/20 11:03:06;;;;;;;4.32;1.92;;;14.60;53.40;;;;;;5063788;28;20202;-83
2024/01/20 11:05:33;;;;;;;2.67;1.27;;;14.70;53.40;;;;;;5068428;28;20028;-85
2024/01/20 11:08:07;;;;;;;3.28;1.75;;;14.70;53.10;;;;;;5067289;28;20063;-85
2024/01/20 11:10:40;;;;;;;3.85;1.55;;;14.80;53.20;;;;;;5065184;28;20024;-83
2024/01/20 11:13:07;;;;;;;;;;;14.90;53.10;;;;;;5071564;28;20040;-83
2024/01/20 11:15:34;;;;;;;2.42;1.40;;;15.00;53.20;;;;;;5073919;28;19919;-84
2024/01/20 11:18:00;;;;;;;5.18;1.80;;;15.10;53.40;;;;;;5070327;28;20118;-86
2024/01/20 11:20:29;;;;;;;4.35;2.17;;;15.10;53.10;;;;;;5040609;28;20029;-85
2024/01/20 11:22:56;;;;;;;4.82;1.80;;;15.20;53.10;;;;;;5053827;28;20055;-86
2024/01/20 11:25:24;;;;;;;2.67;1.42;;;15.20;52.90;;;;;;5041320;28;20605;-84
2024/01/20 11:27:55;;;;;;;4.47;1.45;;;15.30;52.90;;;;;;5040788;28;20162;-87
2024/01/20 11:30:34;;;;;;;3.90;1.38;;;15.30;52.80;;;;;;5032923;28;20024;-88
2024/01/20 11:33:03;;;;;;;3.53;1.30;;;15.40;52.80;;;;;;5058136;28;20102;-87
2024/01/20 11:35:29;;;;;;;6.25;1.52;;;15.50;52.80;;;;;;5059206;28;20033;-87
2024/01/20 11:37:55;;;;;;;3.55;1.52;;;15.60;52.80;;;;;;5061430;28;20043;-86
2024/01/20 11:40:22;;;;;;;3.85;1.45;;;15.70;52.80;;;;;;5052948;28;20064;-88
2024/01/20 11:42:48;;;;;;;2.95;1.25;;;15.80;52.70;;;;;;5054381;28;20025;-87
2024/01/20 11:45:17;;;;;;;3.33;1.20;;;15.80;52.40;;;;;;5061014;28;20097;-88
2024/01/20 11:47:43;;;;;;;2.45;1.08;;;15.90;52.40;;;;;;5059622;28;20052;-87
2024/01/20 11:50:09;;;;;;;2.17;1.48;;;16.00;52.40;;;;;;5039580;28;20089;-85
2024/01/20 11:52:36;;;;;;;1.80;1.50;;;16.00;52.20;;;;;;5040664;28;20105;-85
2024/01/20 11:55:02;;;;;;;2.72;1.25;;;16.10;52.80;;;;;;5024803;28;20044;-85
2024/01/20 11:57:30;;;;;;;3.10;1.30;;;16.10;52.10;;;;;;5034447;28;20124;-88
2024/01/20 12:00:00;;;;;;;4.43;1.50;;;16.10;52.00;;;;;;5039819;28;20797;-87
2024/01/20 12:02:27;;;;;;;3.15;1.20;;;16.10;51.80;;;;;;5044262;28;20031;-85
2024/01/20 12:04:54;;;;;;;2.55;1.30;;;16.10;51.80;;;;;;5035036;28;20036;-85
2024/01/20 12:07:21;;;;;;;5.28;1.30;;;16.10;51.70;;;;;;5051132;28;20040;-84
2024/01/20 12:09:50;;;;;;;3.75;1.25;;;16.20;51.90;;;;;;5052398;28;20036;-84
2024/01/20 12:12:17;;;;;;;4.10;1.20;;;16.20;51.80;;;;;;5044653;28;20041;-86
2024/01/20 12:14:45;;;;;;;2.65;1.25;;;16.30;51.90;;;;;;5053529;28;20059;-86
2024/01/20 12:17:14;;;;;;;3.67;1.20;;;16.30;51.70;;;;;;5058090;28;20040;-86
2024/01/20 12:19:41;;;;;;;3.72;1.80;;;16.40;51.60;;;;;;5051263;28;20036;-81
2024/01/20 12:22:09;;;;;;;1.98;1.05;;;16.40;51.60;;;;;;5067201;28;20120;-88
2024/01/20 12:24:38;;;;;;;6.72;2.10;;;16.40;51.40;;;;;;5036322;28;20024;-85
2024/01/20 12:27:06;;;;;;;3.40;1.70;;;16.40;51.40;;;;;;5049876;28;20043;-82
2024/01/20 12:29:33;;;;;;;3.20;1.17;;;16.40;51.50;;;;;;5045041;28;20021;-82
2024/01/20 12:31:59;;;;;;;3.17;1.88;;;16.40;51.60;;;;;;5042285;28;20053;-83
2024/01/20 12:34:26;;;;;;;5.43;2.20;;;16.40;52.20;;;;;;5057587;28;20139;-84
2024/01/20 12:36:53;;;;;;;5.25;1.73;;;16.40;51.60;;;;;;5047635;28;20036;-83
2024/01/20 12:39:23;;;;;;;7.35;2.70;;;16.40;51.70;;;;;;5049938;28;20032;-86
2024/01/20 12:41:51;;;;;;;8.90;3.00;;;16.30;51.90;;;;;;5048257;28;20025;-87
2024/01/20 12:44:18;;;;;;;7.53;2.78;;;16.30;52.60;;;;;;5062275;28;20032;-86
2024/01/20 12:46:44;;;;;;;14.30;6.05;;;16.30;53.10;;;;;;5052173;28;20124;-89
2024/01/20 12:49:10;;;;;;;14.27;6.07;;;16.40;53.50;;;;;;5057440;28;20044;-87
2024/01/20 12:51:37;;;;;;;10.63;5.40;;;16.50;53.90;;;;;;5051076;28;20360;-84